sensor_id;sensor_type;location;lat;lon;timestamp;pressure;altitude;pressure_sealevel;temperature;humidity
63582;BME280;49727;51.078;17.066;2022-07-04T00:00:22;100219.22;;;18.04;60.44
63582;BME280;49727;51.078;17.066;2022-07-04T00:15:22;100202.84;;;17.67;61.85
63582;BME280;49727;51.078;17.066;2022-07-04T00:30:23;100220.19;;;17.46;62.84
63582;BME280;49727;51.078;17.066;2022-07-04T00:45:23;100198.91;;;17.31;63.72
63582;BME280;49727;51.078;17.066;2022-07-04T01:00:24;100184.09;;;17.08;64.63
63582;BME280;49727;51.078;17.066;2022-07-04T01:15:25;100181.88;;;16.78;65.43
63582;BME280;49727;51.078;17.066;2022-07-04T01:30:25;100164.75;;;16.59;66.51
63582;BME280;49727;51.078;17.066;2022-07-04T01:45:26;100155.47;;;16.48;67.13
63582;BME280;49727;51.078;17.066;2022-07-04T02:00:27;100139.19;;;16.30;67.92
63582;BME280;49727;51.078;17.066;2022-07-04T02:15:46;100133.41;;;16.06;68.85
63582;BME280;49727;51.078;17.066;2022-07-04T02:30:46;100123.09;;;15.83;69.96
63582;BME280;49727;51.078;17.066;2022-07-04T02:45:47;100154.66;;;15.67;70.44
63582;BME280;49727;51.078;17.066;2022-07-04T03:00:47;100159.19;;;15.67;71.40
63582;BME280;49727;51.078;17.066;2022-07-04T03:15:48;100154.66;;;15.67;71.50
63582;BME280;49727;51.078;17.066;2022-07-04T03:30:48;100162.50;;;15.76;71.54
63582;BME280;49727;51.078;17.066;2022-07-04T03:45:48;100158.81;;;16.10;71.71
63582;BME280;49727;51.078;17.066;2022-07-04T04:00:49;100161.50;;;16.37;71.26
63582;BME280;49727;51.078;17.066;2022-07-04T04:15:49;100169.72;;;16.62;70.81
63582;BME280;49727;51.078;17.066;2022-07-04T04:30:50;100156.97;;;17.03;70.79
63582;BME280;49727;51.078;17.066;2022-07-04T04:45:50;100146.00;;;17.50;70.16
63582;BME280;49727;51.078;17.066;2022-07-04T05:00:51;100151.81;;;18.04;69.46
63582;BME280;49727;51.078;17.066;2022-07-04T05:15:51;100152.59;;;18.73;68.04
63582;BME280;49727;51.078;17.066;2022-07-04T05:30:52;100159.00;;;19.58;66.42
63582;BME280;49727;51.078;17.066;2022-07-04T05:45:52;100170.53;;;20.79;64.00
63582;BME280;49727;51.078;17.066;2022-07-04T06:00:52;100171.75;;;22.04;60.66
63582;BME280;49727;51.078;17.066;2022-07-04T06:15:53;100193.88;;;23.30;57.74
63582;BME280;49727;51.078;17.066;2022-07-04T06:30:53;100220.06;;;24.23;54.50
63582;BME280;49727;51.078;17.066;2022-07-04T06:45:54;100202.09;;;25.23;50.82
63582;BME280;49727;51.078;17.066;2022-07-04T07:00:54;100208.56;;;26.06;48.84
63582;BME280;49727;51.078;17.066;2022-07-04T07:15:54;100201.66;;;27.41;45.36
63582;BME280;49727;51.078;17.066;2022-07-04T07:30:55;100199.84;;;28.64;42.18
63582;BME280;49727;51.078;17.066;2022-07-04T07:45:56;100202.75;;;29.60;38.72
63582;BME280;49727;51.078;17.066;2022-07-04T08:00:56;100208.41;;;30.01;37.67
63582;BME280;49727;51.078;17.066;2022-07-04T08:15:57;100196.88;;;30.32;36.57
63582;BME280;49727;51.078;17.066;2022-07-04T08:30:58;100197.25;;;30.12;35.50
63582;BME280;49727;51.078;17.066;2022-07-04T08:45:59;100210.69;;;31.02;33.90
63582;BME280;49727;51.078;17.066;2022-07-04T09:01:05;100234.44;;;30.04;34.51
63582;BME280;49727;51.078;17.066;2022-07-04T09:16:06;100247.59;;;30.40;34.65
63582;BME280;49727;51.078;17.066;2022-07-04T09:31:17;100251.66;;;29.71;35.07
63582;BME280;49727;51.078;17.066;2022-07-04T09:46:22;100254.84;;;30.17;35.04
63582;BME280;49727;51.078;17.066;2022-07-04T10:01:22;100270.47;;;28.97;37.17
63582;BME280;49727;51.078;17.066;2022-07-04T10:16:23;100261.69;;;28.41;39.00
63582;BME280;49727;51.078;17.066;2022-07-04T10:31:26;100269.63;;;28.43;38.58
63582;BME280;49727;51.078;17.066;2022-07-04T10:46:36;100257.69;;;28.87;38.93
63582;BME280;49727;51.078;17.066;2022-07-04T11:01:36;100260.72;;;29.10;38.59
63582;BME280;49727;51.078;17.066;2022-07-04T11:16:52;100234.94;;;29.35;38.38
63582;BME280;49727;51.078;17.066;2022-07-04T11:31:56;100218.56;;;30.34;37.56
63582;BME280;49727;51.078;17.066;2022-07-04T11:47:08;100213.03;;;30.81;36.26
63582;BME280;49727;51.078;17.066;2022-07-04T12:02:11;100208.91;;;31.93;34.10
63582;BME280;49727;51.078;17.066;2022-07-04T12:17:18;100203.16;;;32.03;32.79
63582;BME280;49727;51.078;17.066;2022-07-04T12:32:19;100189.03;;;31.73;34.10
63582;BME280;49727;51.078;17.066;2022-07-04T12:47:19;100190.16;;;32.58;33.24
63582;BME280;49727;51.078;17.066;2022-07-04T13:02:20;100184.94;;;30.84;34.19
63582;BME280;49727;51.078;17.066;2022-07-04T13:17:20;100199.00;;;29.69;37.00
63582;BME280;49727;51.078;17.066;2022-07-04T13:32:21;100202.06;;;29.68;38.07
63582;BME280;49727;51.078;17.066;2022-07-04T13:47:21;100197.25;;;29.60;37.86
63582;BME280;49727;51.078;17.066;2022-07-04T14:02:22;100187.97;;;29.56;37.11
63582;BME280;49727;51.078;17.066;2022-07-04T14:17:22;100159.97;;;29.73;35.82
63582;BME280;49727;51.078;17.066;2022-07-04T14:32:22;100148.69;;;30.54;33.60
63582;BME280;49727;51.078;17.066;2022-07-04T14:47:23;100139.75;;;30.01;33.26
63582;BME280;49727;51.078;17.066;2022-07-04T15:02:23;100142.81;;;29.81;33.37
63582;BME280;49727;51.078;17.066;2022-07-04T15:17:23;100138.41;;;29.66;33.50
63582;BME280;49727;51.078;17.066;2022-07-04T15:32:24;100118.88;;;29.86;34.03
63582;BME280;49727;51.078;17.066;2022-07-04T15:47:24;100127.94;;;29.68;34.10
63582;BME280;49727;51.078;17.066;2022-07-04T16:02:25;100111.47;;;29.68;33.56
63582;BME280;49727;51.078;17.066;2022-07-04T16:17:25;100089.50;;;29.54;32.85
63582;BME280;49727;51.078;17.066;2022-07-04T16:32:26;100089.06;;;29.61;33.24
63582;BME280;49727;51.078;17.066;2022-07-04T16:47:26;100083.59;;;29.61;32.87
63582;BME280;49727;51.078;17.066;2022-07-04T17:02:27;100081.25;;;29.54;32.68
63582;BME280;49727;51.078;17.066;2022-07-04T17:17:28;100104.19;;;28.87;33.20
63582;BME280;49727;51.078;17.066;2022-07-04T17:32:28;100105.03;;;28.39;33.57
63582;BME280;49727;51.078;17.066;2022-07-04T17:47:29;100105.09;;;28.05;34.37
63582;BME280;49727;51.078;17.066;2022-07-04T18:02:29;100140.22;;;27.63;35.36
63582;BME280;49727;51.078;17.066;2022-07-04T18:17:29;100152.91;;;26.98;38.06
63582;BME280;49727;51.078;17.066;2022-07-04T18:32:30;100200.56;;;25.48;43.21
63582;BME280;49727;51.078;17.066;2022-07-04T18:47:30;100166.34;;;24.51;46.97
63582;BME280;49727;51.078;17.066;2022-07-04T19:02:31;100218.56;;;23.51;51.08
63582;BME280;49727;51.078;17.066;2022-07-04T19:17:31;100237.16;;;22.92;53.45
63582;BME280;49727;51.078;17.066;2022-07-04T19:32:33;100247.66;;;22.50;54.86
63582;BME280;49727;51.078;17.066;2022-07-04T19:47:34;100254.84;;;22.10;56.95
63582;BME280;49727;51.078;17.066;2022-07-04T20:02:35;100270.03;;;21.65;58.30
63582;BME280;49727;51.078;17.066;2022-07-04T20:17:35;100276.81;;;21.39;59.76
63582;BME280;49727;51.078;17.066;2022-07-04T20:32:38;100280.06;;;21.12;61.07
63582;BME280;49727;51.078;17.066;2022-07-04T20:47:39;100274.78;;;20.93;62.18
63582;BME280;49727;51.078;17.066;2022-07-04T21:02:41;100265.41;;;20.72;63.26
63582;BME280;49727;51.078;17.066;2022-07-04T21:17:41;100261.22;;;20.58;64.32
63582;BME280;49727;51.078;17.066;2022-07-04T21:32:42;100277.63;;;20.99;66.35
63582;BME280;49727;51.078;17.066;2022-07-04T21:47:42;100279.50;;;21.62;65.11
63582;BME280;49727;51.078;17.066;2022-07-04T22:02:42;100282.28;;;21.68;64.16
63582;BME280;49727;51.078;17.066;2022-07-04T22:17:43;100287.56;;;21.74;63.74
63582;BME280;49727;51.078;17.066;2022-07-04T22:32:43;100306.03;;;21.60;63.34
63582;BME280;49727;51.078;17.066;2022-07-04T22:47:44;100315.81;;;21.38;63.68
63582;BME280;49727;51.078;17.066;2022-07-04T23:02:44;100320.03;;;21.45;63.26
63582;BME280;49727;51.078;17.066;2022-07-04T23:17:44;100309.22;;;21.45;62.85
63582;BME280;49727;51.078;17.066;2022-07-04T23:32:45;100330.81;;;21.17;63.00
63582;BME280;49727;51.078;17.066;2022-07-04T23:47:45;100326.13;;;20.88;63.44
